createdAt,value
2022-11-04T00:02:12.471Z,25.20
2022-11-04T00:04:45.588Z,25.48
2022-11-04T00:07:37.591Z,25.13
2022-11-04T00:10:06.772Z,25.02
2022-11-04T00:12:34.163Z,25.38
2022-11-04T00:15:22.215Z,25.77
2022-11-04T00:17:49.885Z,25.48
2022-11-04T00:20:37.243Z,25.77
2022-11-04T00:23:25.512Z,24.45
2022-11-04T00:26:11.549Z,25.48
2022-11-04T00:28:46.394Z,25.10
2022-11-04T00:31:33.674Z,25.63
2022-11-04T00:34:01.886Z,25.98
2022-11-04T00:36:31.502Z,26.35
2022-11-04T00:38:59.956Z,28.45
2022-11-04T00:41:28.795Z,27.13
2022-11-04T00:44:01.117Z,27.77
2022-11-04T00:46:32.049Z,28.83
2022-11-04T00:49:00.819Z,28.27
2022-11-04T00:51:29.192Z,29.13
2022-11-04T00:53:59.529Z,29.00
2022-11-04T00:56:28.901Z,29.45
2022-11-04T00:58:58.663Z,30.80
2022-11-04T01:01:27.180Z,29.33
2022-11-04T01:03:55.873Z,31.13
2022-11-04T01:06:27.972Z,30.23
2022-11-04T01:09:03.038Z,31.10
2022-11-04T01:11:32.478Z,30.25
2022-11-04T01:14:02.067Z,31.25
2022-11-04T01:16:30.664Z,31.50
2022-11-04T01:18:59.370Z,33.47
2022-11-04T01:21:27.855Z,32.38
2022-11-04T01:23:57.387Z,31.95
2022-11-04T01:26:28.813Z,32.42
2022-11-04T01:29:00.597Z,33.15
2022-11-04T01:31:31.075Z,31.42
2022-11-04T01:33:59.948Z,32.20
2022-11-04T01:36:28.587Z,31.08
2022-11-04T01:38:58.080Z,31.67
2022-11-04T01:41:30.454Z,30.63
2022-11-04T01:44:00.677Z,30.67
2022-11-04T01:46:37.867Z,31.20
2022-11-04T01:49:19.862Z,29.92
2022-11-04T01:51:50.491Z,30.92
2022-11-04T01:54:19.773Z,29.60
2022-11-04T01:56:50.635Z,29.17
2022-11-04T01:59:29.890Z,28.58
2022-11-04T02:01:58.304Z,28.70
2022-11-04T02:04:27.090Z,29.25
2022-11-04T02:06:57.162Z,28.52
2022-11-04T02:09:27.912Z,29.00
2022-11-04T02:12:15.183Z,29.00
2022-11-04T02:14:44.711Z,29.20
2022-11-04T02:17:28.426Z,27.73
2022-11-04T02:20:17.217Z,30.98
2022-11-04T02:23:26.383Z,31.00
2022-11-04T02:26:30.027Z,31.35
2022-11-04T02:29:28.118Z,33.10
2022-11-04T02:32:07.792Z,33.88
2022-11-04T02:34:46.634Z,34.80
2022-11-04T02:37:26.976Z,32.30
2022-11-04T02:40:02.024Z,31.85
2022-11-04T02:42:39.848Z,32.95
2022-11-04T02:45:18.126Z,34.88
2022-11-04T02:47:53.174Z,33.53
2022-11-04T02:50:31.027Z,33.33
2022-11-04T02:53:03.589Z,33.63
2022-11-04T02:55:36.854Z,33.70
2022-11-04T02:58:11.284Z,33.15
2022-11-04T03:00:44.556Z,34.15
2022-11-04T03:03:16.916Z,35.03
2022-11-04T03:05:49.119Z,32.42
2022-11-04T03:08:22.937Z,31.88
2022-11-04T03:10:54.881Z,31.00
2022-11-04T03:13:30.201Z,31.20
2022-11-04T03:16:02.917Z,30.80
2022-11-04T03:18:39.624Z,31.95
2022-11-04T03:21:11.176Z,31.48
2022-11-04T03:23:40.128Z,34.50
2022-11-04T03:26:14.015Z,32.53
2022-11-04T03:28:54.761Z,30.67
2022-11-04T03:31:31.083Z,31.33
2022-11-04T03:34:00.951Z,31.58
2022-11-04T03:36:30.534Z,32.55
2022-11-04T03:38:59.081Z,30.70
2022-11-04T03:41:34.753Z,31.23
2022-11-04T03:44:03.208Z,31.08
2022-11-04T03:46:33.695Z,33.47
2022-11-04T03:49:03.493Z,30.80
2022-11-04T03:51:32.076Z,31.73
2022-11-04T03:54:02.565Z,32.70
2022-11-04T03:57:08.430Z,32.53
2022-11-04T04:00:01.639Z,30.70
2022-11-04T04:02:41.017Z,34.45
2022-11-04T04:05:17.689Z,34.08
2022-11-04T04:07:53.064Z,32.95
2022-11-04T04:10:42.090Z,31.98
2022-11-04T04:13:26.440Z,32.10
2022-11-04T04:15:58.787Z,33.22
2022-11-04T04:18:35.860Z,31.30
2022-11-04T04:21:08.712Z,33.83
2022-11-04T04:23:56.603Z,32.47
2022-11-04T04:26:43.817Z,34.88
2022-11-04T04:29:12.704Z,35.88
2022-11-04T04:31:51.433Z,34.63
2022-11-04T04:34:29.212Z,36.67
2022-11-04T04:37:02.804Z,34.83
2022-11-04T04:39:54.279Z,33.78
2022-11-04T04:42:40.363Z,34.97
2022-11-04T04:45:24.802Z,33.15
2022-11-04T04:47:53.749Z,33.50
2022-11-04T04:50:24.529Z,34.53
2022-11-04T04:52:55.212Z,34.08
2022-11-04T04:55:23.814Z,32.60
2022-11-04T04:57:53.494Z,33.38
2022-11-04T05:00:22.412Z,32.70
2022-11-04T05:02:54.205Z,32.80
2022-11-04T05:05:24.562Z,33.13
2022-11-04T05:07:56.968Z,32.50
2022-11-04T05:10:25.377Z,32.13
2022-11-04T05:13:26.083Z,31.50
2022-11-04T05:15:55.739Z,30.90
2022-11-04T05:18:24.373Z,31.20
2022-11-04T05:20:55.011Z,31.55
2022-11-04T05:23:23.670Z,31.38
2022-11-04T05:25:51.887Z,33.38
2022-11-04T05:28:20.553Z,32.30
2022-11-04T05:30:48.637Z,33.53
2022-11-04T05:33:17.054Z,32.53
2022-11-04T05:35:49.203Z,34.08
2022-11-04T05:38:19.288Z,33.33
2022-11-04T05:40:47.324Z,33.50
2022-11-04T05:43:17.231Z,33.80
2022-11-04T05:45:46.463Z,34.63
2022-11-04T05:48:14.712Z,35.30
2022-11-04T05:50:43.954Z,33.85
2022-11-04T05:53:12.995Z,34.58
2022-11-04T05:55:42.736Z,34.58
2022-11-04T05:58:11.920Z,34.33
2022-11-04T06:00:40.278Z,34.67
2022-11-04T06:03:12.069Z,33.65
2022-11-04T06:05:43.598Z,32.33
2022-11-04T06:08:12.360Z,32.95
2022-11-04T06:10:42.541Z,33.75
2022-11-04T06:13:11.168Z,33.40
2022-11-04T06:15:39.550Z,32.33
2022-11-04T06:18:08.196Z,33.88
2022-11-04T06:20:36.661Z,33.95
2022-11-04T06:23:05.416Z,34.67
2022-11-04T06:25:33.701Z,32.40
2022-11-04T06:28:04.546Z,34.45
2022-11-04T06:30:32.965Z,34.72
2022-11-04T06:33:02.510Z,35.85
2022-11-04T06:35:30.824Z,34.65
2022-11-04T06:38:00.771Z,34.97
2022-11-04T06:40:29.232Z,34.67
2022-11-04T06:42:57.612Z,33.85
2022-11-04T06:45:27.414Z,32.40
2022-11-04T06:47:56.240Z,34.13
2022-11-04T06:50:24.829Z,32.25
2022-11-04T06:52:53.493Z,34.00
2022-11-04T06:55:24.943Z,33.20
2022-11-04T06:57:53.473Z,32.03
2022-11-04T07:00:22.954Z,31.30
2022-11-04T07:02:53.147Z,31.35
2022-11-04T07:05:21.259Z,31.73
2022-11-04T07:07:49.761Z,31.05
2022-11-04T07:10:19.994Z,31.90
2022-11-04T07:12:48.784Z,31.42
2022-11-04T07:15:17.484Z,31.70
2022-11-04T07:17:46.235Z,30.45
2022-11-04T07:20:19.326Z,30.35
2022-11-04T07:25:16.057Z,29.45
2022-11-04T07:27:44.308Z,29.52
2022-11-04T07:30:14.474Z,29.15
2022-11-04T07:32:42.621Z,29.27
2022-11-04T07:35:14.204Z,28.45
2022-11-04T07:37:43.843Z,28.73
2022-11-04T07:40:14.136Z,29.27
2022-11-04T07:42:42.567Z,28.52
2022-11-04T07:45:11.867Z,27.75
2022-11-04T07:47:43.170Z,26.67
2022-11-04T07:50:11.774Z,29.17
2022-11-04T07:52:40.358Z,28.70
2022-11-04T07:55:11.203Z,29.00
2022-11-04T07:57:39.664Z,30.02
2022-11-04T08:00:11.709Z,29.90
2022-11-04T08:02:40.400Z,29.08
2022-11-04T08:05:10.620Z,30.60
2022-11-04T08:07:42.276Z,29.42
2022-11-04T08:10:12.232Z,30.45
2022-11-04T08:12:40.520Z,29.70
2022-11-04T08:15:10.174Z,29.35
2022-11-04T08:17:38.265Z,32.40
2022-11-04T08:20:07.370Z,31.27
2022-11-04T08:22:36.743Z,32.20
2022-11-04T08:25:06.087Z,31.63
2022-11-04T08:30:09.084Z,32.65
2022-11-04T08:32:46.282Z,32.83
2022-11-04T08:35:14.658Z,33.50
2022-11-04T08:37:42.934Z,33.67
2022-11-04T08:40:12.331Z,34.53
2022-11-04T08:42:42.809Z,32.90
2022-11-04T08:45:11.189Z,34.15
2022-11-04T08:47:40.539Z,36.40
2022-11-04T08:50:10.246Z,36.45
2022-11-04T08:52:38.942Z,36.65
2022-11-04T08:55:08.332Z,34.75
2022-11-04T08:57:36.629Z,37.53
2022-11-04T09:00:07.682Z,37.63
2022-11-04T09:02:36.287Z,37.55
2022-11-04T09:05:05.119Z,34.55
2022-11-04T09:07:35.372Z,35.40
2022-11-04T09:10:04.584Z,35.30
2022-11-04T09:12:33.442Z,34.75
2022-11-04T09:15:01.806Z,34.75
2022-11-04T09:17:33.101Z,35.10
2022-11-04T09:20:03.176Z,33.80
2022-11-04T09:22:34.586Z,35.00
2022-11-04T09:25:03.392Z,35.78
2022-11-04T09:27:32.734Z,35.88
2022-11-04T09:30:01.233Z,35.58
2022-11-04T09:32:30.213Z,35.42
2022-11-04T09:35:00.016Z,36.67
2022-11-04T09:37:34.637Z,39.33
2022-11-04T09:40:03.532Z,38.92
2022-11-04T09:42:43.348Z,41.13
2022-11-04T09:45:22.926Z,41.45
2022-11-04T09:47:58.287Z,40.88
2022-11-04T09:50:32.812Z,39.50
2022-11-04T09:53:08.790Z,39.13
2022-11-04T09:55:45.849Z,37.80
2022-11-04T09:58:15.930Z,37.70
2022-11-04T10:00:52.702Z,38.03
2022-11-04T10:03:39.247Z,39.15
2022-11-04T10:06:26.283Z,37.90
2022-11-04T10:09:10.271Z,37.13
2022-11-04T10:11:48.130Z,36.95
2022-11-04T10:14:35.620Z,37.53
2022-11-04T10:17:14.738Z,38.03
2022-11-04T10:19:56.328Z,38.13
2022-11-04T10:22:34.014Z,37.63
2022-11-04T10:25:12.221Z,38.05
2022-11-04T10:27:44.811Z,37.35
2022-11-04T10:30:19.707Z,41.45
2022-11-04T10:33:00.521Z,38.88
2022-11-04T10:35:34.662Z,39.67
2022-11-04T10:38:17.640Z,40.15
2022-11-04T10:40:50.948Z,41.65
2022-11-04T10:43:28.493Z,40.72
2022-11-04T10:46:14.720Z,41.33
2022-11-04T10:48:50.472Z,42.13
2022-11-04T10:51:22.255Z,39.75
2022-11-04T10:53:56.357Z,39.88
2022-11-04T10:56:34.524Z,40.30
2022-11-04T10:59:23.642Z,39.97
2022-11-04T11:01:53.397Z,40.90
2022-11-04T11:04:30.897Z,41.00
2022-11-04T11:07:01.856Z,41.83
2022-11-04T11:09:33.305Z,42.63
2022-11-04T11:12:29.517Z,39.42
2022-11-04T11:14:55.166Z,39.38
2022-11-04T11:17:26.293Z,39.53
2022-11-04T11:19:58.067Z,39.35
2022-11-04T11:22:32.750Z,40.67
2022-11-04T11:25:25.876Z,39.92
2022-11-04T11:27:58.123Z,38.15
2022-11-04T11:33:08.730Z,37.97
2022-11-04T11:35:42.534Z,39.38
2022-11-04T11:38:23.990Z,39.08
2022-11-04T11:41:23.293Z,39.22
2022-11-04T11:43:51.019Z,38.72
2022-11-04T11:46:24.678Z,39.38
2022-11-04T11:48:54.736Z,37.45
2022-11-04T11:51:31.960Z,39.67
2022-11-04T11:54:17.827Z,41.33
2022-11-04T11:57:12.461Z,39.92
2022-11-04T12:02:44.087Z,39.88
2022-11-04T12:11:17.737Z,37.83
2022-11-04T12:13:52.679Z,37.53
2022-11-04T12:16:33.142Z,37.47
2022-11-04T12:19:18.777Z,35.70
2022-11-04T12:21:50.245Z,37.03
2022-11-04T12:24:34.028Z,36.28
2022-11-04T12:27:12.948Z,36.70
2022-11-04T12:29:55.149Z,37.03
2022-11-04T12:35:11.961Z,36.15
2022-11-04T12:37:52.312Z,34.50
2022-11-04T12:40:24.529Z,34.28
2022-11-04T12:43:20.123Z,34.17
2022-11-04T12:46:03.410Z,34.88
2022-11-04T12:48:55.937Z,33.50
2022-11-04T12:51:38.092Z,33.40
2022-11-04T12:54:37.311Z,32.92
2022-11-04T12:57:14.626Z,31.33
2022-11-04T12:59:55.111Z,31.48
2022-11-04T13:02:29.706Z,31.92
2022-11-04T13:05:06.974Z,30.50
2022-11-04T13:07:41.291Z,31.63
2022-11-04T13:10:20.259Z,30.63
2022-11-04T13:12:51.716Z,29.70
2022-11-04T13:15:22.987Z,29.63
2022-11-04T13:17:59.955Z,28.63
2022-11-04T13:20:33.027Z,28.63
2022-11-04T13:23:06.896Z,28.88
2022-11-04T13:25:40.520Z,26.85
2022-11-04T13:28:13.435Z,26.63
2022-11-04T13:30:46.823Z,28.38
2022-11-04T13:33:25.886Z,27.52
2022-11-04T13:36:00.034Z,27.38
2022-11-04T13:38:35.543Z,28.27
2022-11-04T13:41:22.040Z,27.42
2022-11-04T13:43:54.623Z,28.20
2022-11-04T13:46:30.474Z,27.15
2022-11-04T13:49:16.801Z,27.77
2022-11-04T13:51:47.083Z,28.27
2022-11-04T13:54:29.703Z,27.35
2022-11-04T13:57:09.684Z,29.00
2022-11-04T13:59:38.580Z,27.65
2022-11-04T14:02:42.198Z,27.33
2022-11-04T14:05:54.178Z,28.67
2022-11-04T14:08:23.719Z,28.02
2022-11-04T14:11:13.151Z,29.10
2022-11-04T14:14:02.642Z,28.40
2022-11-04T14:16:46.186Z,27.40
2022-11-04T14:19:59.682Z,27.40
2022-11-04T14:22:50.540Z,28.35
2022-11-04T14:25:27.789Z,28.80
2022-11-04T14:27:58.502Z,27.23
2022-11-04T14:30:42.907Z,28.10
2022-11-04T14:33:24.209Z,28.65
2022-11-04T14:35:54.712Z,28.65
2022-11-04T14:38:29.304Z,28.42
2022-11-04T14:41:22.542Z,29.08
2022-11-04T14:43:55.287Z,27.52
2022-11-04T14:46:28.178Z,28.20
2022-11-04T14:49:01.211Z,27.38
2022-11-04T14:51:31.841Z,28.02
2022-11-04T14:54:06.379Z,27.30
2022-11-04T14:56:36.456Z,27.17
2022-11-04T14:59:10.088Z,28.75
2022-11-04T15:01:41.454Z,27.35
2022-11-04T15:04:18.291Z,27.58
2022-11-04T15:06:56.039Z,28.25
2022-11-04T15:09:26.735Z,28.73
2022-11-04T15:12:23.488Z,28.33
2022-11-04T15:14:52.595Z,28.13
2022-11-04T15:17:27.085Z,28.88
2022-11-04T15:19:58.052Z,27.95
2022-11-04T15:22:28.131Z,30.38
2022-11-04T15:24:57.829Z,30.50
2022-11-04T15:27:31.175Z,28.95
2022-11-04T15:30:04.220Z,30.05
2022-11-04T15:32:32.618Z,29.33
2022-11-04T15:35:01.741Z,28.83
2022-11-04T15:37:31.654Z,29.67
2022-11-04T15:40:01.322Z,30.63
2022-11-04T15:42:40.811Z,30.75
2022-11-04T15:45:39.339Z,30.35
2022-11-04T15:48:30.806Z,31.10
2022-11-04T15:51:13.616Z,31.98
2022-11-04T15:53:53.398Z,31.17
2022-11-04T15:56:24.468Z,32.35
2022-11-04T15:58:57.069Z,30.30
2022-11-04T16:01:26.330Z,30.33
2022-11-04T16:03:56.925Z,31.05
2022-11-04T16:06:36.518Z,29.45
2022-11-04T16:09:21.426Z,30.05
2022-11-04T16:12:13.975Z,30.60
2022-11-04T16:14:51.583Z,30.58
2022-11-04T16:17:20.826Z,30.35
2022-11-04T16:19:54.549Z,29.95
2022-11-04T16:22:32.465Z,30.92
2022-11-04T16:25:03.025Z,30.27
2022-11-04T16:27:34.907Z,30.15
2022-11-04T16:30:22.579Z,31.98
2022-11-04T16:32:54.902Z,31.08
2022-11-04T16:35:29.229Z,31.27
2022-11-04T16:38:01.183Z,31.83
2022-11-04T16:43:00.922Z,31.80
2022-11-04T16:45:33.712Z,32.15
2022-11-04T16:48:14.328Z,32.35
2022-11-04T16:50:44.385Z,33.33
2022-11-04T16:53:15.254Z,33.10
2022-11-04T16:55:47.521Z,33.40
2022-11-04T16:58:24.275Z,33.33
2022-11-04T17:01:05.231Z,34.17
2022-11-04T17:03:33.993Z,35.63
2022-11-04T17:06:04.300Z,34.20
2022-11-04T17:08:34.566Z,34.90
2022-11-04T17:11:08.221Z,34.22
2022-11-04T17:13:40.628Z,34.60
2022-11-04T17:16:18.395Z,34.65
2022-11-04T17:18:53.616Z,35.25
2022-11-04T17:21:26.309Z,35.00
2022-11-04T17:23:58.701Z,35.10
2022-11-04T17:26:34.474Z,33.95
2022-11-04T17:29:04.369Z,33.80
2022-11-04T17:31:37.676Z,33.67
2022-11-04T17:34:09.450Z,33.42
2022-11-04T17:36:41.460Z,33.33
2022-11-04T17:42:00.767Z,31.50
2022-11-04T17:44:32.191Z,34.25
2022-11-04T17:47:03.530Z,32.45
2022-11-04T17:49:39.066Z,31.80
2022-11-04T17:52:09.402Z,31.13
2022-11-04T17:54:40.056Z,31.55
2022-11-04T17:57:12.879Z,32.42
2022-11-04T17:59:43.036Z,30.08
2022-11-04T18:02:13.656Z,30.08
2022-11-04T18:04:46.088Z,30.13
2022-11-04T18:07:17.444Z,29.98
2022-11-04T18:09:45.795Z,30.92
2022-11-04T18:12:32.247Z,28.92
2022-11-04T18:15:01.309Z,30.52
2022-11-04T18:17:32.647Z,30.63
2022-11-04T18:20:02.074Z,31.42
2022-11-04T18:22:32.417Z,28.92
2022-11-04T18:25:03.208Z,30.75
2022-11-04T18:27:34.181Z,34.13
2022-11-04T18:30:03.111Z,33.63
2022-11-04T18:32:34.557Z,32.47
2022-11-04T18:35:05.489Z,32.42
2022-11-04T18:37:35.904Z,32.35
2022-11-04T18:40:05.158Z,32.83
2022-11-04T18:42:33.769Z,32.65
2022-11-04T18:45:02.296Z,31.95
2022-11-04T18:47:33.670Z,31.85
2022-11-04T18:50:03.356Z,34.85
2022-11-04T18:52:34.429Z,33.75
2022-11-04T18:55:04.992Z,35.00
2022-11-04T18:57:33.659Z,36.22
2022-11-04T19:00:04.486Z,37.83
2022-11-04T19:02:35.349Z,40.15
2022-11-04T19:05:11.453Z,38.78
2022-11-04T19:07:42.101Z,41.45
2022-11-04T19:10:11.653Z,36.83
2022-11-04T19:12:58.011Z,34.65
2022-11-04T19:15:27.581Z,37.25
2022-11-04T19:17:58.896Z,40.63
2022-11-04T19:20:28.144Z,40.53
2022-11-04T19:22:56.653Z,41.13
2022-11-04T19:25:25.129Z,45.22
2022-11-04T19:28:18.617Z,46.78
2022-11-04T19:30:46.799Z,44.67
2022-11-04T19:33:17.039Z,44.28
2022-11-04T19:35:52.254Z,44.90
2022-11-04T19:38:22.596Z,43.55
2022-11-04T19:40:52.189Z,42.63
2022-11-04T19:43:21.206Z,42.85
2022-11-04T19:45:52.168Z,41.00
2022-11-04T19:48:22.327Z,40.65
2022-11-04T19:50:51.709Z,43.28
2022-11-04T19:53:20.815Z,44.63
2022-11-04T19:55:51.388Z,42.30
2022-11-04T19:58:20.715Z,42.97
2022-11-04T20:00:50.025Z,43.47
2022-11-04T20:03:18.760Z,44.95
2022-11-04T20:05:50.567Z,46.97
2022-11-04T20:08:19.613Z,47.10
2022-11-04T20:10:48.771Z,46.75
2022-11-04T20:13:36.560Z,49.78
2022-11-04T20:16:14.745Z,47.67
2022-11-04T20:18:43.508Z,47.17
2022-11-04T20:21:17.406Z,47.53
2022-11-04T20:23:46.527Z,47.50
2022-11-04T20:26:20.679Z,47.40
2022-11-04T20:28:49.724Z,46.92
2022-11-04T20:31:20.381Z,44.63
2022-11-04T20:33:49.860Z,45.35
2022-11-04T20:36:23.358Z,45.58
2022-11-04T20:38:57.378Z,46.22
2022-11-04T20:41:28.041Z,44.72
2022-11-04T20:43:56.877Z,43.92
2022-11-04T20:46:28.600Z,41.03
2022-11-04T20:48:58.681Z,39.15
2022-11-04T20:51:31.382Z,36.50
2022-11-04T20:54:01.985Z,37.45
2022-11-04T20:56:32.556Z,37.33
2022-11-04T20:59:02.825Z,38.85
2022-11-04T21:01:33.854Z,38.30
2022-11-04T21:04:04.256Z,38.53
2022-11-04T21:06:35.914Z,38.63
2022-11-04T21:09:05.719Z,40.15
2022-11-04T21:11:35.886Z,41.13
2022-11-04T21:14:06.611Z,43.17
2022-11-04T21:16:35.906Z,44.53
2022-11-04T21:19:05.108Z,44.47
2022-11-04T21:21:35.137Z,44.75
2022-11-04T21:24:05.756Z,45.28
2022-11-04T21:26:36.427Z,45.88
2022-11-04T21:29:07.980Z,46.47
2022-11-04T21:31:37.887Z,44.83
2022-11-04T21:34:07.246Z,45.78
2022-11-04T21:36:37.488Z,45.10
2022-11-04T21:39:06.409Z,48.17
2022-11-04T21:41:37.257Z,47.65
2022-11-04T21:44:09.372Z,47.08
2022-11-04T21:46:39.707Z,50.15
2022-11-04T21:49:08.092Z,50.40
2022-11-04T21:51:38.211Z,51.08
2022-11-04T21:54:08.596Z,50.28
2022-11-04T21:56:37.493Z,53.17
2022-11-04T21:59:05.998Z,54.33
2022-11-04T22:01:34.841Z,55.40
2022-11-04T22:04:04.762Z,55.08
2022-11-04T22:06:35.828Z,55.97
2022-11-04T22:09:08.245Z,56.70
2022-11-04T22:11:39.808Z,57.42
2022-11-04T22:14:10.293Z,54.28
2022-11-04T22:16:41.043Z,53.13
2022-11-04T22:19:13.767Z,53.53
2022-11-04T22:21:43.919Z,56.25
2022-11-04T22:24:17.371Z,54.22
2022-11-04T22:26:46.325Z,51.42
2022-11-04T22:29:14.765Z,53.45
2022-11-04T22:31:44.466Z,54.30
2022-11-04T22:34:12.968Z,54.63
2022-11-04T22:36:41.631Z,53.83
2022-11-04T22:39:16.713Z,56.83
2022-11-04T22:41:46.470Z,55.45
2022-11-04T22:44:15.339Z,55.55
2022-11-04T22:46:43.720Z,58.53
2022-11-04T22:49:13.307Z,58.63
2022-11-04T22:51:41.780Z,58.90
2022-11-04T22:54:11.317Z,60.83
2022-11-04T22:56:41.317Z,59.72
2022-11-04T22:59:09.647Z,60.72
2022-11-04T23:01:39.150Z,61.15
2022-11-04T23:04:12.832Z,60.53
2022-11-04T23:06:41.344Z,60.00
2022-11-04T23:09:10.509Z,65.85
2022-11-04T23:11:57.297Z,70.63
2022-11-04T23:14:43.195Z,72.03
2022-11-04T23:17:34.619Z,74.15
2022-11-04T23:20:03.594Z,72.95
2022-11-04T23:22:49.429Z,69.95
2022-11-04T23:25:17.993Z,68.82
2022-11-04T23:28:08.199Z,69.15
2022-11-04T23:30:39.962Z,68.95
2022-11-04T23:33:10.254Z,63.63
2022-11-04T23:35:58.728Z,62.28
2022-11-04T23:38:29.022Z,64.57
2022-11-04T23:41:21.910Z,61.83
2022-11-04T23:43:52.827Z,56.65
2022-11-04T23:46:42.999Z,51.88
2022-11-04T23:49:29.774Z,50.38
2022-11-04T23:52:15.771Z,49.00
2022-11-04T23:55:02.030Z,48.22
2022-11-04T23:57:50.639Z,46.50
